createdAt,value
2022-12-01T00:02:08.443Z,1028.3
2022-12-01T00:07:05.536Z,1028.3
2022-12-01T00:12:05.880Z,1028.3
2022-12-01T00:17:05.067Z,1028.4
2022-12-01T00:22:04.821Z,1028.5
2022-12-01T00:27:05.709Z,1028.4
2022-12-01T00:32:04.434Z,1028.4
2022-12-01T00:37:04.038Z,1028.3
2022-12-01T00:42:05.454Z,1028.3
2022-12-01T00:47:04.591Z,1028.2
2022-12-01T00:52:03.345Z,1028.2
2022-12-01T00:57:03.133Z,1028.2
2022-12-01T01:02:02.951Z,1028.2
2022-12-01T01:07:02.666Z,1028.2
2022-12-01T01:12:02.480Z,1028.1
2022-12-01T01:17:02.345Z,1028.1
2022-12-01T01:22:04.467Z,1028.1
2022-12-01T01:27:01.811Z,1028.2
2022-12-01T01:32:01.596Z,1028.3
2022-12-01T01:37:03.380Z,1028.3
2022-12-01T01:42:01.199Z,1028.4
2022-12-01T01:47:01.009Z,1028.5
2022-12-01T01:57:00.620Z,1028.6
2022-12-01T02:02:02.495Z,1028.6
2022-12-01T02:07:00.237Z,1028.6
2022-12-01T02:12:00.064Z,1028.6
2022-12-01T02:16:59.875Z,1028.6
2022-12-01T02:21:59.678Z,1028.6
2022-12-01T02:26:59.464Z,1028.6
2022-12-01T02:31:59.318Z,1028.5
2022-12-01T02:36:59.093Z,1028.5
2022-12-01T02:41:58.849Z,1028.4
2022-12-01T02:46:58.613Z,1028.4
2022-12-01T02:51:58.411Z,1028.3
2022-12-01T02:56:58.224Z,1028.2
2022-12-01T03:01:57.996Z,1028.1
2022-12-01T03:06:57.814Z,1028.0
2022-12-01T03:11:57.622Z,1028.0
2022-12-01T03:16:57.396Z,1028.0
2022-12-01T03:21:57.186Z,1028.0
2022-12-01T03:26:57.116Z,1028.1
2022-12-01T03:31:56.775Z,1028.0
2022-12-01T03:36:56.501Z,1028.1
2022-12-01T03:51:55.868Z,1028.1
2022-12-01T03:56:55.697Z,1028.1
2022-12-01T04:01:55.518Z,1028.2
2022-12-01T04:06:55.252Z,1028.2
2022-12-01T04:11:55.004Z,1028.3
2022-12-01T04:16:54.905Z,1028.3
2022-12-01T04:21:57.108Z,1028.3
2022-12-01T04:26:56.519Z,1028.2
2022-12-01T04:31:54.294Z,1028.3
2022-12-01T04:36:54.220Z,1028.4
2022-12-01T04:41:53.818Z,1028.4
2022-12-01T04:46:53.672Z,1028.4
2022-12-01T04:51:57.374Z,1028.5
2022-12-01T04:56:53.229Z,1028.5
2022-12-01T05:01:53.040Z,1028.4
2022-12-01T05:06:55.250Z,1028.4
2022-12-01T05:11:52.687Z,1028.3
2022-12-01T05:16:52.336Z,1028.4
2022-12-01T05:21:52.113Z,1028.5
2022-12-01T05:26:51.942Z,1028.5
2022-12-01T05:31:51.875Z,1028.6
2022-12-01T05:36:51.653Z,1028.6
2022-12-01T05:41:51.358Z,1028.7
2022-12-01T05:46:53.179Z,1028.7
2022-12-01T05:51:50.984Z,1028.7
2022-12-01T05:56:50.772Z,1028.7
2022-12-01T06:01:50.650Z,1028.7
2022-12-01T06:11:52.465Z,1028.8
2022-12-01T06:21:49.831Z,1028.9
2022-12-01T06:26:49.638Z,1028.8
2022-12-01T06:31:49.499Z,1028.7
2022-12-01T06:36:51.274Z,1028.8
2022-12-01T06:41:49.381Z,1028.7
2022-12-01T06:46:48.882Z,1028.7
2022-12-01T06:51:48.649Z,1028.8
2022-12-01T06:56:48.511Z,1028.8
2022-12-01T07:01:48.377Z,1028.8
2022-12-01T07:06:48.111Z,1028.8
2022-12-01T07:11:47.909Z,1028.8
2022-12-01T07:16:47.790Z,1028.9
2022-12-01T07:21:47.521Z,1028.9
2022-12-01T07:26:49.714Z,1028.9
2022-12-01T07:31:47.228Z,1028.9
2022-12-01T07:36:47.010Z,1028.9
2022-12-01T07:41:46.859Z,1029.0
2022-12-01T07:46:46.827Z,1029.1
2022-12-01T07:51:46.405Z,1029.2
2022-12-01T07:56:46.291Z,1029.3
2022-12-01T08:01:46.165Z,1029.3
2022-12-01T08:06:45.962Z,1029.4
2022-12-01T08:11:45.753Z,1029.4
2022-12-01T08:16:47.572Z,1029.4
2022-12-01T08:21:45.369Z,1029.4
2022-12-01T08:26:49.241Z,1029.4
2022-12-01T08:31:45.030Z,1029.4
2022-12-01T08:36:44.856Z,1029.5
2022-12-01T08:41:44.620Z,1029.5
2022-12-01T08:46:44.667Z,1029.5
2022-12-01T08:51:44.275Z,1029.6
2022-12-01T08:56:44.114Z,1029.6
2022-12-01T09:01:43.969Z,1029.6
2022-12-01T09:06:43.777Z,1029.6
2022-12-01T09:11:43.584Z,1029.7
2022-12-01T09:16:43.461Z,1029.7
2022-12-01T09:21:43.213Z,1029.7
2022-12-01T09:26:43.095Z,1029.7
2022-12-01T09:31:45.015Z,1029.8
2022-12-01T09:36:42.813Z,1029.9
2022-12-01T09:41:42.653Z,1029.9
2022-12-01T09:46:42.521Z,1029.9
2022-12-01T09:51:42.373Z,1029.9
2022-12-01T09:56:42.229Z,1029.9
2022-12-01T10:01:42.124Z,1029.9
2022-12-01T10:06:43.894Z,1029.9
2022-12-01T10:11:41.697Z,1030.0
2022-12-01T10:16:41.619Z,1030.0
2022-12-01T10:21:43.472Z,1030.0
2022-12-01T10:26:41.305Z,1030.0
2022-12-01T10:36:41.138Z,1029.9
2022-12-01T10:41:41.037Z,1029.9
2022-12-01T10:46:40.941Z,1029.7
2022-12-01T10:51:40.888Z,1029.7
2022-12-01T10:56:40.738Z,1029.6
2022-12-01T11:01:40.778Z,1029.5
2022-12-01T11:06:40.544Z,1029.5
2022-12-01T11:11:40.523Z,1029.4
2022-12-01T11:16:40.444Z,1029.3
2022-12-01T11:21:41.510Z,1029.3
2022-12-01T11:23:13.770Z,1029.3
2022-12-01T11:26:40.200Z,1029.3
2022-12-01T11:31:40.139Z,1029.2
2022-12-01T11:36:39.994Z,1029.2
2022-12-01T11:41:39.953Z,1029.1
2022-12-01T11:46:46.298Z,1029.0
2022-12-01T11:51:41.768Z,1028.9
2022-12-01T11:56:39.676Z,1028.8
2022-12-01T12:01:39.723Z,1028.8
2022-12-01T12:06:40.450Z,1028.8
2022-12-01T12:21:41.243Z,1028.8
2022-12-01T12:26:39.135Z,1028.7
2022-12-01T12:31:41.101Z,1028.7
2022-12-01T12:36:39.003Z,1028.7
2022-12-01T12:41:38.969Z,1028.6
2022-12-01T12:46:38.893Z,1028.6
2022-12-01T12:51:38.772Z,1028.6
2022-12-01T12:56:38.653Z,1028.5
2022-12-01T12:57:38.906Z,1028.5
2022-12-01T13:01:38.578Z,1028.5
2022-12-01T13:06:38.455Z,1028.4
2022-12-01T13:11:38.364Z,1028.3
2022-12-01T13:16:38.277Z,1028.4
2022-12-01T13:21:38.374Z,1028.3
2022-12-01T13:26:38.047Z,1028.3
2022-12-01T13:31:38.006Z,1028.3
2022-12-01T13:36:46.717Z,1028.2
2022-12-01T13:41:37.779Z,1028.1
2022-12-01T13:46:37.677Z,1028.1
2022-12-01T13:51:37.567Z,1028.1
2022-12-01T13:56:39.680Z,1028.0
2022-12-01T14:01:37.466Z,1027.9
2022-12-01T14:06:37.198Z,1027.9
2022-12-01T14:11:37.138Z,1027.8
2022-12-01T14:16:37.058Z,1027.8
2022-12-01T14:21:36.914Z,1027.8
2022-12-01T14:26:39.675Z,1027.8
2022-12-01T14:31:36.745Z,1027.8
2022-12-01T14:36:36.593Z,1027.8
2022-12-01T14:41:36.485Z,1027.8
2022-12-01T14:46:36.463Z,1027.8
2022-12-01T14:51:36.274Z,1027.8
2022-12-01T14:56:36.156Z,1027.7
2022-12-01T15:01:36.094Z,1027.8
2022-12-01T15:06:35.979Z,1027.7
2022-12-01T15:11:35.865Z,1027.7
2022-12-01T15:16:35.873Z,1027.8
2022-12-01T15:21:35.635Z,1027.8
2022-12-01T15:26:35.543Z,1027.7
2022-12-01T15:31:35.498Z,1027.7
2022-12-01T15:36:35.306Z,1027.7
2022-12-01T15:46:35.055Z,1027.8
2022-12-01T15:51:34.894Z,1027.8
2022-12-01T16:01:34.682Z,1027.7
2022-12-01T16:06:34.796Z,1027.6
2022-12-01T16:11:34.253Z,1027.7
2022-12-01T16:16:34.186Z,1027.7
2022-12-01T16:21:33.937Z,1027.7
2022-12-01T16:26:33.735Z,1027.7
2022-12-01T16:31:43.316Z,1027.8
2022-12-01T16:36:33.408Z,1027.8
2022-12-01T16:41:38.405Z,1027.8
2022-12-01T16:46:33.145Z,1027.8
2022-12-01T16:51:54.242Z,1027.9
2022-12-01T16:56:32.671Z,1027.9
2022-12-01T17:01:32.501Z,1028.0
2022-12-01T17:06:32.265Z,1027.9
2022-12-01T17:11:32.035Z,1028.0
2022-12-01T17:16:31.855Z,1028.0
2022-12-01T17:21:32.335Z,1028.0
2022-12-01T17:26:31.394Z,1028.1
2022-12-01T17:31:33.796Z,1028.1
2022-12-01T17:36:30.912Z,1028.2
2022-12-01T17:41:30.724Z,1028.1
2022-12-01T17:46:30.651Z,1028.2
2022-12-01T17:51:30.290Z,1028.2
2022-12-01T17:56:31.360Z,1028.3
2022-12-01T18:01:30.674Z,1028.3
2022-12-01T18:11:29.222Z,1028.3
2022-12-01T18:21:28.778Z,1028.5
2022-12-01T18:26:28.545Z,1028.5
2022-12-01T18:31:28.421Z,1028.4
2022-12-01T18:36:28.090Z,1028.4
2022-12-01T18:41:27.855Z,1028.3
2022-12-01T18:46:29.740Z,1028.4
2022-12-01T18:51:27.417Z,1028.4
2022-12-01T18:56:27.153Z,1028.4
2022-12-01T19:01:26.992Z,1028.4
2022-12-01T19:06:26.728Z,1028.4
2022-12-01T19:11:26.503Z,1028.4
2022-12-01T19:16:26.822Z,1028.4
2022-12-01T19:21:26.069Z,1028.4
2022-12-01T19:26:29.880Z,1028.3
2022-12-01T19:31:25.742Z,1028.4
2022-12-01T19:36:25.443Z,1028.4
2022-12-01T19:41:25.211Z,1028.3
2022-12-01T19:51:24.828Z,1028.4
2022-12-01T19:56:24.553Z,1028.3
2022-12-01T20:01:24.478Z,1028.3
2022-12-01T20:06:24.298Z,1028.3
2022-12-01T20:11:26.534Z,1028.2
2022-12-01T20:16:23.928Z,1028.3
2022-12-01T20:21:23.613Z,1028.2
2022-12-01T20:26:28.939Z,1028.2
2022-12-01T20:31:23.304Z,1028.2
2022-12-01T20:36:23.000Z,1028.2
2022-12-01T20:41:22.769Z,1028.3
2022-12-01T20:46:23.199Z,1028.3
2022-12-01T20:56:22.055Z,1028.3
2022-12-01T21:01:21.928Z,1028.3
2022-12-01T21:06:21.661Z,1028.3
2022-12-01T21:11:21.539Z,1028.3
2022-12-01T21:21:21.039Z,1028.3
2022-12-01T21:26:20.871Z,1028.3
2022-12-01T21:31:20.792Z,1028.2
2022-12-01T21:36:20.456Z,1028.2
2022-12-01T21:41:20.298Z,1028.2
2022-12-01T21:46:20.151Z,1028.2
2022-12-01T21:51:19.873Z,1028.1
2022-12-01T21:56:19.652Z,1028.1
2022-12-01T22:01:19.555Z,1028.0
2022-12-01T22:06:29.727Z,1028.0
2022-12-01T22:11:19.102Z,1027.9
2022-12-01T22:16:18.973Z,1027.9
2022-12-01T22:21:18.764Z,1027.9
2022-12-01T22:26:18.594Z,1027.9
2022-12-01T22:31:19.555Z,1028.0
2022-12-01T22:36:18.292Z,1028.0
2022-12-01T22:41:18.038Z,1028.0
2022-12-01T22:46:17.908Z,1027.9
2022-12-01T22:51:17.707Z,1027.9
2022-12-01T22:56:19.533Z,1027.9
2022-12-01T23:06:19.215Z,1027.9
2022-12-01T23:11:17.054Z,1027.9
2022-12-01T23:16:17.042Z,1027.9
2022-12-01T23:21:16.788Z,1027.8
2022-12-01T23:26:16.563Z,1027.8
2022-12-01T23:36:16.171Z,1027.8
2022-12-01T23:41:16.697Z,1027.7
2022-12-01T23:46:15.813Z,1027.7
2022-12-01T23:51:15.600Z,1027.6
2022-12-01T23:56:15.426Z,1027.6
